sensor_id;sensor_type;location;lat;lon;timestamp;temperature;humidity
15364;DHT22;7781;49.690;6.472;2023-06-22T00:00:56;20.40;99.90
15364;DHT22;7781;49.690;6.472;2023-06-22T00:03:28;20.40;99.90
15364;DHT22;7781;49.690;6.472;2023-06-22T00:05:57;20.30;99.90
15364;DHT22;7781;49.690;6.472;2023-06-22T00:08:26;20.30;99.90
15364;DHT22;7781;49.690;6.472;2023-06-22T00:10:55;20.40;99.90
15364;DHT22;7781;49.690;6.472;2023-06-22T00:13:23;20.30;99.90
15364;DHT22;7781;49.690;6.472;2023-06-22T00:15:51;20.30;99.90
15364;DHT22;7781;49.690;6.472;2023-06-22T00:18:20;20.30;99.90
15364;DHT22;7781;49.690;6.472;2023-06-22T00:20:50;20.30;99.90
15364;DHT22;7781;49.690;6.472;2023-06-22T00:23:23;20.30;99.90
15364;DHT22;7781;49.690;6.472;2023-06-22T00:25:53;20.40;99.90
15364;DHT22;7781;49.690;6.472;2023-06-22T00:28:21;20.50;99.90
15364;DHT22;7781;49.690;6.472;2023-06-22T00:30:51;20.50;99.90
15364;DHT22;7781;49.690;6.472;2023-06-22T00:33:21;20.50;99.90
15364;DHT22;7781;49.690;6.472;2023-06-22T00:35:51;20.50;99.90
15364;DHT22;7781;49.690;6.472;2023-06-22T00:38:20;20.60;99.90
15364;DHT22;7781;49.690;6.472;2023-06-22T00:40:49;20.50;99.90
15364;DHT22;7781;49.690;6.472;2023-06-22T00:43:19;20.50;99.90
15364;DHT22;7781;49.690;6.472;2023-06-22T00:45:47;20.50;99.90
15364;DHT22;7781;49.690;6.472;2023-06-22T00:48:17;20.40;99.90
15364;DHT22;7781;49.690;6.472;2023-06-22T00:50:47;20.30;99.90
15364;DHT22;7781;49.690;6.472;2023-06-22T00:53:19;20.20;99.90
15364;DHT22;7781;49.690;6.472;2023-06-22T00:55:49;20.30;99.90
15364;DHT22;7781;49.690;6.472;2023-06-22T00:58:19;20.30;99.90
15364;DHT22;7781;49.690;6.472;2023-06-22T01:00:49;20.20;99.90
15364;DHT22;7781;49.690;6.472;2023-06-22T01:03:18;20.30;99.90
15364;DHT22;7781;49.690;6.472;2023-06-22T01:05:48;20.20;99.90
15364;DHT22;7781;49.690;6.472;2023-06-22T01:08:27;20.30;99.90
15364;DHT22;7781;49.690;6.472;2023-06-22T01:11:01;20.20;99.90
15364;DHT22;7781;49.690;6.472;2023-06-22T01:13:37;20.30;99.90
15364;DHT22;7781;49.690;6.472;2023-06-22T01:16:15;20.20;99.90
15364;DHT22;7781;49.690;6.472;2023-06-22T01:18:46;20.30;99.90
15364;DHT22;7781;49.690;6.472;2023-06-22T01:21:18;20.30;99.90
15364;DHT22;7781;49.690;6.472;2023-06-22T01:26:54;20.30;99.90
15364;DHT22;7781;49.690;6.472;2023-06-22T01:29:28;20.40;99.90
15364;DHT22;7781;49.690;6.472;2023-06-22T01:31:57;20.40;99.90
15364;DHT22;7781;49.690;6.472;2023-06-22T01:34:29;20.40;99.90
15364;DHT22;7781;49.690;6.472;2023-06-22T01:37:00;20.40;99.90
15364;DHT22;7781;49.690;6.472;2023-06-22T01:39:29;20.50;99.90
15364;DHT22;7781;49.690;6.472;2023-06-22T01:41:59;20.60;99.90
15364;DHT22;7781;49.690;6.472;2023-06-22T01:44:29;20.60;99.90
15364;DHT22;7781;49.690;6.472;2023-06-22T01:46:58;20.50;99.90
15364;DHT22;7781;49.690;6.472;2023-06-22T01:49:27;20.40;99.90
15364;DHT22;7781;49.690;6.472;2023-06-22T01:51:57;20.40;99.90
15364;DHT22;7781;49.690;6.472;2023-06-22T01:54:28;20.30;99.90
15364;DHT22;7781;49.690;6.472;2023-06-22T01:56:56;20.20;99.90
15364;DHT22;7781;49.690;6.472;2023-06-22T01:59:28;20.10;99.90
15364;DHT22;7781;49.690;6.472;2023-06-22T02:02:02;20.10;99.90
15364;DHT22;7781;49.690;6.472;2023-06-22T02:04:37;20.00;99.90
15364;DHT22;7781;49.690;6.472;2023-06-22T02:07:10;20.00;99.90
15364;DHT22;7781;49.690;6.472;2023-06-22T02:09:43;19.90;99.90
15364;DHT22;7781;49.690;6.472;2023-06-22T02:12:13;19.90;99.90
15364;DHT22;7781;49.690;6.472;2023-06-22T02:14:45;19.90;99.90
15364;DHT22;7781;49.690;6.472;2023-06-22T02:17:17;19.90;99.90
15364;DHT22;7781;49.690;6.472;2023-06-22T02:20:03;19.90;99.90
15364;DHT22;7781;49.690;6.472;2023-06-22T02:22:35;19.90;99.90
15364;DHT22;7781;49.690;6.472;2023-06-22T02:25:04;19.90;99.90
15364;DHT22;7781;49.690;6.472;2023-06-22T02:27:32;19.90;99.90
15364;DHT22;7781;49.690;6.472;2023-06-22T02:30:00;19.90;99.90
15364;DHT22;7781;49.690;6.472;2023-06-22T02:32:30;19.90;99.90
15364;DHT22;7781;49.690;6.472;2023-06-22T02:35:01;19.90;99.90
15364;DHT22;7781;49.690;6.472;2023-06-22T02:37:31;20.00;99.90
15364;DHT22;7781;49.690;6.472;2023-06-22T02:39:59;20.00;99.90
15364;DHT22;7781;49.690;6.472;2023-06-22T02:42:28;20.00;99.90
15364;DHT22;7781;49.690;6.472;2023-06-22T02:44:57;20.10;99.90
15364;DHT22;7781;49.690;6.472;2023-06-22T02:47:25;20.10;99.90
15364;DHT22;7781;49.690;6.472;2023-06-22T02:54:30;20.10;99.90
15364;DHT22;7781;49.690;6.472;2023-06-22T02:57:00;20.00;99.90
15364;DHT22;7781;49.690;6.472;2023-06-22T02:59:30;20.00;99.90
15364;DHT22;7781;49.690;6.472;2023-06-22T03:02:09;20.10;99.90
15364;DHT22;7781;49.690;6.472;2023-06-22T03:04:39;20.10;99.90
15364;DHT22;7781;49.690;6.472;2023-06-22T03:07:09;20.10;99.90
15364;DHT22;7781;49.690;6.472;2023-06-22T03:09:39;20.00;99.90
15364;DHT22;7781;49.690;6.472;2023-06-22T03:12:09;20.00;99.90
15364;DHT22;7781;49.690;6.472;2023-06-22T03:14:53;20.00;99.90
15364;DHT22;7781;49.690;6.472;2023-06-22T03:17:21;20.10;99.90
15364;DHT22;7781;49.690;6.472;2023-06-22T03:19:52;20.00;99.90
15364;DHT22;7781;49.690;6.472;2023-06-22T03:22:22;20.00;99.90
15364;DHT22;7781;49.690;6.472;2023-06-22T03:24:52;19.90;99.90
15364;DHT22;7781;49.690;6.472;2023-06-22T03:27:21;19.90;99.90
15364;DHT22;7781;49.690;6.472;2023-06-22T03:29:49;19.80;99.90
15364;DHT22;7781;49.690;6.472;2023-06-22T03:32:19;19.80;99.90
15364;DHT22;7781;49.690;6.472;2023-06-22T03:34:48;19.80;99.90
15364;DHT22;7781;49.690;6.472;2023-06-22T03:37:18;19.80;99.90
15364;DHT22;7781;49.690;6.472;2023-06-22T03:39:48;19.70;99.90
15364;DHT22;7781;49.690;6.472;2023-06-22T03:42:18;19.70;99.90
15364;DHT22;7781;49.690;6.472;2023-06-22T03:44:47;19.60;99.90
15364;DHT22;7781;49.690;6.472;2023-06-22T03:47:16;19.60;99.90
15364;DHT22;7781;49.690;6.472;2023-06-22T03:49:45;19.60;99.90
15364;DHT22;7781;49.690;6.472;2023-06-22T03:52:13;19.60;99.90
15364;DHT22;7781;49.690;6.472;2023-06-22T03:54:42;19.60;99.90
15364;DHT22;7781;49.690;6.472;2023-06-22T03:57:10;19.60;99.90
15364;DHT22;7781;49.690;6.472;2023-06-22T03:59:42;19.60;99.90
15364;DHT22;7781;49.690;6.472;2023-06-22T04:02:10;19.60;99.90
15364;DHT22;7781;49.690;6.472;2023-06-22T04:04:39;19.70;99.90
15364;DHT22;7781;49.690;6.472;2023-06-22T04:07:08;19.60;99.90
15364;DHT22;7781;49.690;6.472;2023-06-22T04:09:38;19.60;99.90
15364;DHT22;7781;49.690;6.472;2023-06-22T04:12:07;19.60;99.90
15364;DHT22;7781;49.690;6.472;2023-06-22T04:14:37;19.60;99.90
15364;DHT22;7781;49.690;6.472;2023-06-22T04:17:07;19.70;99.90
15364;DHT22;7781;49.690;6.472;2023-06-22T04:19:36;19.70;99.90
15364;DHT22;7781;49.690;6.472;2023-06-22T04:22:05;19.70;99.90
15364;DHT22;7781;49.690;6.472;2023-06-22T04:24:35;19.80;99.90
15364;DHT22;7781;49.690;6.472;2023-06-22T04:27:05;19.80;99.90
15364;DHT22;7781;49.690;6.472;2023-06-22T04:29:34;19.80;99.90
15364;DHT22;7781;49.690;6.472;2023-06-22T04:32:03;19.90;99.90
15364;DHT22;7781;49.690;6.472;2023-06-22T04:34:35;19.90;99.90
15364;DHT22;7781;49.690;6.472;2023-06-22T04:37:05;20.00;99.90
15364;DHT22;7781;49.690;6.472;2023-06-22T04:39:34;20.00;99.90
15364;DHT22;7781;49.690;6.472;2023-06-22T04:42:04;20.10;99.90
15364;DHT22;7781;49.690;6.472;2023-06-22T04:44:34;20.20;99.90
15364;DHT22;7781;49.690;6.472;2023-06-22T04:47:03;20.20;99.90
15364;DHT22;7781;49.690;6.472;2023-06-22T04:49:37;20.20;99.90
15364;DHT22;7781;49.690;6.472;2023-06-22T04:52:08;20.20;99.90
15364;DHT22;7781;49.690;6.472;2023-06-22T04:54:39;20.30;99.90
15364;DHT22;7781;49.690;6.472;2023-06-22T04:57:16;20.30;99.90
15364;DHT22;7781;49.690;6.472;2023-06-22T04:59:45;20.30;99.90
15364;DHT22;7781;49.690;6.472;2023-06-22T05:02:14;20.30;99.90
15364;DHT22;7781;49.690;6.472;2023-06-22T05:04:45;20.30;99.90
15364;DHT22;7781;49.690;6.472;2023-06-22T05:07:18;20.30;99.90
15364;DHT22;7781;49.690;6.472;2023-06-22T05:09:47;20.40;99.90
15364;DHT22;7781;49.690;6.472;2023-06-22T05:12:17;20.40;99.90
15364;DHT22;7781;49.690;6.472;2023-06-22T05:14:45;20.40;99.90
15364;DHT22;7781;49.690;6.472;2023-06-22T05:17:14;20.40;99.90
15364;DHT22;7781;49.690;6.472;2023-06-22T05:19:47;20.40;99.90
15364;DHT22;7781;49.690;6.472;2023-06-22T05:22:16;20.50;99.90
15364;DHT22;7781;49.690;6.472;2023-06-22T05:24:48;20.50;99.90
15364;DHT22;7781;49.690;6.472;2023-06-22T05:27:17;20.50;99.90
15364;DHT22;7781;49.690;6.472;2023-06-22T05:29:46;20.50;99.90
15364;DHT22;7781;49.690;6.472;2023-06-22T05:32:14;20.60;99.90
15364;DHT22;7781;49.690;6.472;2023-06-22T05:34:42;20.60;99.90
15364;DHT22;7781;49.690;6.472;2023-06-22T05:37:13;20.60;99.90
15364;DHT22;7781;49.690;6.472;2023-06-22T05:39:41;20.60;99.90
15364;DHT22;7781;49.690;6.472;2023-06-22T05:42:10;20.60;99.90
15364;DHT22;7781;49.690;6.472;2023-06-22T05:44:38;20.70;99.90
15364;DHT22;7781;49.690;6.472;2023-06-22T05:47:07;20.60;99.90
15364;DHT22;7781;49.690;6.472;2023-06-22T05:49:36;20.60;99.90
15364;DHT22;7781;49.690;6.472;2023-06-22T05:52:05;20.60;99.90
15364;DHT22;7781;49.690;6.472;2023-06-22T05:54:35;20.60;99.90
15364;DHT22;7781;49.690;6.472;2023-06-22T05:57:06;20.60;99.90
15364;DHT22;7781;49.690;6.472;2023-06-22T05:59:34;20.70;99.90
15364;DHT22;7781;49.690;6.472;2023-06-22T06:02:03;20.70;99.90
15364;DHT22;7781;49.690;6.472;2023-06-22T06:04:32;20.70;99.90
15364;DHT22;7781;49.690;6.472;2023-06-22T06:07:01;20.70;99.90
15364;DHT22;7781;49.690;6.472;2023-06-22T06:09:30;20.70;99.90
15364;DHT22;7781;49.690;6.472;2023-06-22T06:11:59;20.80;99.90
15364;DHT22;7781;49.690;6.472;2023-06-22T06:14:30;20.80;99.90
15364;DHT22;7781;49.690;6.472;2023-06-22T06:17:01;20.80;99.90
15364;DHT22;7781;49.690;6.472;2023-06-22T06:19:29;20.90;99.90
15364;DHT22;7781;49.690;6.472;2023-06-22T06:21:58;21.00;99.90
15364;DHT22;7781;49.690;6.472;2023-06-22T06:24:27;21.00;99.90
15364;DHT22;7781;49.690;6.472;2023-06-22T06:26:56;21.10;99.90
15364;DHT22;7781;49.690;6.472;2023-06-22T06:29:26;21.20;99.90
15364;DHT22;7781;49.690;6.472;2023-06-22T06:31:55;21.30;99.90
15364;DHT22;7781;49.690;6.472;2023-06-22T06:34:23;21.40;99.90
15364;DHT22;7781;49.690;6.472;2023-06-22T06:36:53;21.60;99.90
15364;DHT22;7781;49.690;6.472;2023-06-22T06:39:22;21.70;99.90
15364;DHT22;7781;49.690;6.472;2023-06-22T06:41:54;21.90;99.90
15364;DHT22;7781;49.690;6.472;2023-06-22T06:44:22;22.00;99.90
15364;DHT22;7781;49.690;6.472;2023-06-22T06:46:53;22.10;99.90
15364;DHT22;7781;49.690;6.472;2023-06-22T06:49:23;22.20;99.90
15364;DHT22;7781;49.690;6.472;2023-06-22T06:51:52;22.30;99.90
15364;DHT22;7781;49.690;6.472;2023-06-22T06:54:24;22.40;99.90
15364;DHT22;7781;49.690;6.472;2023-06-22T06:56:55;22.50;99.90
15364;DHT22;7781;49.690;6.472;2023-06-22T06:59:24;22.50;99.90
15364;DHT22;7781;49.690;6.472;2023-06-22T07:01:54;22.50;99.90
15364;DHT22;7781;49.690;6.472;2023-06-22T07:04:24;22.50;99.90
15364;DHT22;7781;49.690;6.472;2023-06-22T07:06:53;22.50;99.90
15364;DHT22;7781;49.690;6.472;2023-06-22T07:09:22;22.50;99.90
15364;DHT22;7781;49.690;6.472;2023-06-22T07:11:50;22.60;99.90
15364;DHT22;7781;49.690;6.472;2023-06-22T07:14:20;22.60;99.90
15364;DHT22;7781;49.690;6.472;2023-06-22T07:16:49;22.70;99.90
15364;DHT22;7781;49.690;6.472;2023-06-22T07:19:26;22.80;99.90
15364;DHT22;7781;49.690;6.472;2023-06-22T07:21:55;22.80;99.90
15364;DHT22;7781;49.690;6.472;2023-06-22T07:24:24;22.90;99.90
15364;DHT22;7781;49.690;6.472;2023-06-22T07:26:54;22.90;99.90
15364;DHT22;7781;49.690;6.472;2023-06-22T07:29:26;23.00;99.90
15364;DHT22;7781;49.690;6.472;2023-06-22T07:31:55;23.00;99.90
15364;DHT22;7781;49.690;6.472;2023-06-22T07:34:25;23.10;99.90
15364;DHT22;7781;49.690;6.472;2023-06-22T07:36:54;23.20;99.90
15364;DHT22;7781;49.690;6.472;2023-06-22T07:39:22;23.30;99.90
15364;DHT22;7781;49.690;6.472;2023-06-22T07:41:53;23.40;99.90
15364;DHT22;7781;49.690;6.472;2023-06-22T07:44:22;23.50;99.90
15364;DHT22;7781;49.690;6.472;2023-06-22T07:46:51;23.60;99.90
15364;DHT22;7781;49.690;6.472;2023-06-22T07:49:19;23.70;99.90
15364;DHT22;7781;49.690;6.472;2023-06-22T07:51:49;23.70;99.90
15364;DHT22;7781;49.690;6.472;2023-06-22T07:54:18;23.80;99.90
15364;DHT22;7781;49.690;6.472;2023-06-22T07:56:46;23.90;99.90
15364;DHT22;7781;49.690;6.472;2023-06-22T07:59:15;23.90;99.90
15364;DHT22;7781;49.690;6.472;2023-06-22T08:01:44;24.00;99.90
15364;DHT22;7781;49.690;6.472;2023-06-22T08:04:15;24.00;99.90
15364;DHT22;7781;49.690;6.472;2023-06-22T08:06:43;24.00;99.90
15364;DHT22;7781;49.690;6.472;2023-06-22T08:09:13;24.10;99.90
15364;DHT22;7781;49.690;6.472;2023-06-22T08:11:42;24.20;99.90
15364;DHT22;7781;49.690;6.472;2023-06-22T08:14:12;24.20;99.90
15364;DHT22;7781;49.690;6.472;2023-06-22T08:16:41;24.20;99.90
15364;DHT22;7781;49.690;6.472;2023-06-22T08:19:10;24.20;99.90
15364;DHT22;7781;49.690;6.472;2023-06-22T08:21:38;24.20;99.90
15364;DHT22;7781;49.690;6.472;2023-06-22T08:24:09;24.00;99.90
15364;DHT22;7781;49.690;6.472;2023-06-22T08:26:40;24.00;99.90
15364;DHT22;7781;49.690;6.472;2023-06-22T08:29:08;23.90;99.90
15364;DHT22;7781;49.690;6.472;2023-06-22T08:31:37;23.80;99.90
15364;DHT22;7781;49.690;6.472;2023-06-22T08:34:06;23.70;99.90
15364;DHT22;7781;49.690;6.472;2023-06-22T08:36:34;23.60;99.90
15364;DHT22;7781;49.690;6.472;2023-06-22T08:39:08;23.60;99.90
15364;DHT22;7781;49.690;6.472;2023-06-22T08:41:37;23.60;99.90
15364;DHT22;7781;49.690;6.472;2023-06-22T08:44:07;23.50;99.90
15364;DHT22;7781;49.690;6.472;2023-06-22T08:46:37;23.60;99.90
15364;DHT22;7781;49.690;6.472;2023-06-22T08:49:08;23.60;99.90
15364;DHT22;7781;49.690;6.472;2023-06-22T08:51:38;23.60;99.90
15364;DHT22;7781;49.690;6.472;2023-06-22T08:54:06;23.60;99.90
15364;DHT22;7781;49.690;6.472;2023-06-22T08:56:35;23.60;99.90
15364;DHT22;7781;49.690;6.472;2023-06-22T08:59:03;23.60;99.90
15364;DHT22;7781;49.690;6.472;2023-06-22T09:01:37;23.60;99.90
15364;DHT22;7781;49.690;6.472;2023-06-22T09:04:06;23.30;99.90
15364;DHT22;7781;49.690;6.472;2023-06-22T09:06:37;23.20;99.90
15364;DHT22;7781;49.690;6.472;2023-06-22T09:09:12;23.10;99.90
15364;DHT22;7781;49.690;6.472;2023-06-22T09:11:41;23.00;99.90
15364;DHT22;7781;49.690;6.472;2023-06-22T09:14:10;22.90;99.90
15364;DHT22;7781;49.690;6.472;2023-06-22T09:16:40;22.80;99.90
15364;DHT22;7781;49.690;6.472;2023-06-22T09:19:11;22.70;99.90
15364;DHT22;7781;49.690;6.472;2023-06-22T09:21:40;22.70;99.90
15364;DHT22;7781;49.690;6.472;2023-06-22T09:24:08;22.60;99.90
15364;DHT22;7781;49.690;6.472;2023-06-22T09:26:37;22.60;99.90
15364;DHT22;7781;49.690;6.472;2023-06-22T09:29:06;22.60;99.90
15364;DHT22;7781;49.690;6.472;2023-06-22T09:31:35;22.50;99.90
15364;DHT22;7781;49.690;6.472;2023-06-22T09:34:06;22.60;99.90
15364;DHT22;7781;49.690;6.472;2023-06-22T09:36:34;22.70;99.90
15364;DHT22;7781;49.690;6.472;2023-06-22T09:39:03;22.80;99.90
15364;DHT22;7781;49.690;6.472;2023-06-22T09:41:34;22.80;99.90
15364;DHT22;7781;49.690;6.472;2023-06-22T09:44:05;22.80;99.90
15364;DHT22;7781;49.690;6.472;2023-06-22T09:46:33;22.90;99.90
15364;DHT22;7781;49.690;6.472;2023-06-22T09:49:02;22.80;99.90
15364;DHT22;7781;49.690;6.472;2023-06-22T09:51:32;22.80;99.90
15364;DHT22;7781;49.690;6.472;2023-06-22T09:54:01;22.80;99.90
15364;DHT22;7781;49.690;6.472;2023-06-22T09:56:29;22.80;99.90
15364;DHT22;7781;49.690;6.472;2023-06-22T09:58:58;22.90;99.90
15364;DHT22;7781;49.690;6.472;2023-06-22T10:01:43;23.10;99.90
15364;DHT22;7781;49.690;6.472;2023-06-22T10:04:12;23.40;99.90
15364;DHT22;7781;49.690;6.472;2023-06-22T10:06:42;23.50;99.90
15364;DHT22;7781;49.690;6.472;2023-06-22T10:09:11;23.70;99.90
15364;DHT22;7781;49.690;6.472;2023-06-22T10:11:39;23.80;99.90
15364;DHT22;7781;49.690;6.472;2023-06-22T10:14:09;23.90;99.90
15364;DHT22;7781;49.690;6.472;2023-06-22T10:16:37;24.00;99.90
15364;DHT22;7781;49.690;6.472;2023-06-22T10:19:08;24.20;99.90
15364;DHT22;7781;49.690;6.472;2023-06-22T10:21:37;24.20;99.90
15364;DHT22;7781;49.690;6.472;2023-06-22T10:24:07;24.20;99.90
15364;DHT22;7781;49.690;6.472;2023-06-22T10:26:36;24.20;99.90
15364;DHT22;7781;49.690;6.472;2023-06-22T10:29:05;24.20;99.90
15364;DHT22;7781;49.690;6.472;2023-06-22T10:31:43;24.30;99.90
15364;DHT22;7781;49.690;6.472;2023-06-22T10:34:12;24.30;99.90
15364;DHT22;7781;49.690;6.472;2023-06-22T10:36:40;24.30;99.90
15364;DHT22;7781;49.690;6.472;2023-06-22T10:39:10;24.30;99.90
15364;DHT22;7781;49.690;6.472;2023-06-22T10:41:39;24.20;99.90
15364;DHT22;7781;49.690;6.472;2023-06-22T10:44:07;24.30;99.90
15364;DHT22;7781;49.690;6.472;2023-06-22T10:46:36;24.30;99.90
15364;DHT22;7781;49.690;6.472;2023-06-22T10:49:05;24.30;99.90
15364;DHT22;7781;49.690;6.472;2023-06-22T10:51:34;24.30;99.90
15364;DHT22;7781;49.690;6.472;2023-06-22T10:54:04;24.40;99.90
15364;DHT22;7781;49.690;6.472;2023-06-22T10:56:34;24.50;99.90
15364;DHT22;7781;49.690;6.472;2023-06-22T10:59:05;24.70;99.90
15364;DHT22;7781;49.690;6.472;2023-06-22T11:01:34;24.80;99.90
15364;DHT22;7781;49.690;6.472;2023-06-22T11:04:04;25.10;99.90
15364;DHT22;7781;49.690;6.472;2023-06-22T11:06:33;25.30;99.90
15364;DHT22;7781;49.690;6.472;2023-06-22T11:09:01;25.40;99.90
15364;DHT22;7781;49.690;6.472;2023-06-22T11:11:51;25.50;99.90
15364;DHT22;7781;49.690;6.472;2023-06-22T11:14:20;25.70;99.90
15364;DHT22;7781;49.690;6.472;2023-06-22T11:16:49;25.80;99.90
15364;DHT22;7781;49.690;6.472;2023-06-22T11:19:18;25.90;99.90
15364;DHT22;7781;49.690;6.472;2023-06-22T11:21:47;26.00;99.90
15364;DHT22;7781;49.690;6.472;2023-06-22T11:24:17;26.20;99.90
15364;DHT22;7781;49.690;6.472;2023-06-22T11:26:46;26.30;99.90
15364;DHT22;7781;49.690;6.472;2023-06-22T11:29:16;26.50;99.90
15364;DHT22;7781;49.690;6.472;2023-06-22T11:32:03;26.70;99.90
15364;DHT22;7781;49.690;6.472;2023-06-22T11:34:32;26.70;99.90
15364;DHT22;7781;49.690;6.472;2023-06-22T11:37:01;26.90;99.90
15364;DHT22;7781;49.690;6.472;2023-06-22T11:39:29;27.20;99.90
15364;DHT22;7781;49.690;6.472;2023-06-22T11:42:08;27.30;99.90
15364;DHT22;7781;49.690;6.472;2023-06-22T11:44:39;27.30;99.90
15364;DHT22;7781;49.690;6.472;2023-06-22T11:47:09;27.40;99.90
15364;DHT22;7781;49.690;6.472;2023-06-22T11:49:38;27.60;99.90
15364;DHT22;7781;49.690;6.472;2023-06-22T11:52:07;27.80;99.90
15364;DHT22;7781;49.690;6.472;2023-06-22T11:54:36;28.10;99.90
15364;DHT22;7781;49.690;6.472;2023-06-22T11:57:05;28.40;99.90
15364;DHT22;7781;49.690;6.472;2023-06-22T11:59:35;28.60;99.90
15364;DHT22;7781;49.690;6.472;2023-06-22T12:02:05;28.90;99.90
15364;DHT22;7781;49.690;6.472;2023-06-22T12:04:36;29.10;99.90
15364;DHT22;7781;49.690;6.472;2023-06-22T12:07:04;29.40;99.90
15364;DHT22;7781;49.690;6.472;2023-06-22T12:09:33;29.60;99.90
15364;DHT22;7781;49.690;6.472;2023-06-22T12:12:02;29.90;99.90
15364;DHT22;7781;49.690;6.472;2023-06-22T12:14:32;30.20;99.90
15364;DHT22;7781;49.690;6.472;2023-06-22T12:17:01;30.50;99.90
15364;DHT22;7781;49.690;6.472;2023-06-22T12:19:31;30.80;99.90
15364;DHT22;7781;49.690;6.472;2023-06-22T12:21:59;31.20;99.90
15364;DHT22;7781;49.690;6.472;2023-06-22T12:24:28;31.20;99.90
15364;DHT22;7781;49.690;6.472;2023-06-22T12:26:56;31.20;99.90
15364;DHT22;7781;49.690;6.472;2023-06-22T12:29:25;31.10;99.90
15364;DHT22;7781;49.690;6.472;2023-06-22T12:31:53;30.80;99.90
15364;DHT22;7781;49.690;6.472;2023-06-22T12:34:22;30.60;99.90
15364;DHT22;7781;49.690;6.472;2023-06-22T12:36:52;30.40;99.90
15364;DHT22;7781;49.690;6.472;2023-06-22T12:39:21;30.10;99.90
15364;DHT22;7781;49.690;6.472;2023-06-22T12:41:49;29.80;99.90
15364;DHT22;7781;49.690;6.472;2023-06-22T12:44:18;29.70;99.90
15364;DHT22;7781;49.690;6.472;2023-06-22T12:46:48;29.50;99.90
15364;DHT22;7781;49.690;6.472;2023-06-22T12:49:16;29.30;99.90
15364;DHT22;7781;49.690;6.472;2023-06-22T12:51:45;28.80;99.90
15364;DHT22;7781;49.690;6.472;2023-06-22T12:54:15;28.60;99.90
15364;DHT22;7781;49.690;6.472;2023-06-22T12:56:43;28.60;99.90
15364;DHT22;7781;49.690;6.472;2023-06-22T12:59:12;28.60;99.90
15364;DHT22;7781;49.690;6.472;2023-06-22T13:01:41;28.60;99.90
15364;DHT22;7781;49.690;6.472;2023-06-22T13:04:11;28.50;99.90
15364;DHT22;7781;49.690;6.472;2023-06-22T13:06:42;28.30;99.90
15364;DHT22;7781;49.690;6.472;2023-06-22T13:09:10;28.10;99.90
15364;DHT22;7781;49.690;6.472;2023-06-22T13:11:43;28.10;99.90
15364;DHT22;7781;49.690;6.472;2023-06-22T13:14:12;27.50;99.90
15364;DHT22;7781;49.690;6.472;2023-06-22T13:16:40;27.20;99.90
15364;DHT22;7781;49.690;6.472;2023-06-22T13:19:10;25.60;99.90
15364;DHT22;7781;49.690;6.472;2023-06-22T13:21:39;24.10;99.90
15364;DHT22;7781;49.690;6.472;2023-06-22T13:24:08;23.60;99.90
15364;DHT22;7781;49.690;6.472;2023-06-22T13:26:36;23.40;99.90
15364;DHT22;7781;49.690;6.472;2023-06-22T13:29:06;23.10;99.90
15364;DHT22;7781;49.690;6.472;2023-06-22T13:31:35;23.00;99.90
15364;DHT22;7781;49.690;6.472;2023-06-22T13:34:04;22.90;99.90
15364;DHT22;7781;49.690;6.472;2023-06-22T13:36:32;22.80;99.90
15364;DHT22;7781;49.690;6.472;2023-06-22T13:39:00;22.70;99.90
15364;DHT22;7781;49.690;6.472;2023-06-22T13:41:29;22.70;99.90
15364;DHT22;7781;49.690;6.472;2023-06-22T13:43:58;22.70;99.90
15364;DHT22;7781;49.690;6.472;2023-06-22T13:46:28;22.50;99.90
15364;DHT22;7781;49.690;6.472;2023-06-22T13:48:57;22.50;99.90
15364;DHT22;7781;49.690;6.472;2023-06-22T13:51:26;22.50;99.90
15364;DHT22;7781;49.690;6.472;2023-06-22T13:53:55;22.50;99.90
15364;DHT22;7781;49.690;6.472;2023-06-22T13:56:24;22.30;99.90
15364;DHT22;7781;49.690;6.472;2023-06-22T13:58:53;22.20;99.90
15364;DHT22;7781;49.690;6.472;2023-06-22T14:01:21;22.20;99.90
15364;DHT22;7781;49.690;6.472;2023-06-22T14:03:52;22.10;99.90
15364;DHT22;7781;49.690;6.472;2023-06-22T14:06:20;22.10;99.90
15364;DHT22;7781;49.690;6.472;2023-06-22T14:08:49;22.10;99.90
15364;DHT22;7781;49.690;6.472;2023-06-22T14:11:18;22.10;99.90
15364;DHT22;7781;49.690;6.472;2023-06-22T14:13:49;22.20;99.90
15364;DHT22;7781;49.690;6.472;2023-06-22T14:16:18;22.20;99.90
15364;DHT22;7781;49.690;6.472;2023-06-22T14:18:46;22.20;99.90
15364;DHT22;7781;49.690;6.472;2023-06-22T14:21:18;22.30;99.90
15364;DHT22;7781;49.690;6.472;2023-06-22T14:23:47;22.40;99.90
15364;DHT22;7781;49.690;6.472;2023-06-22T14:26:16;22.40;99.90
15364;DHT22;7781;49.690;6.472;2023-06-22T14:28:46;22.60;99.90
15364;DHT22;7781;49.690;6.472;2023-06-22T14:31:17;22.70;99.90
15364;DHT22;7781;49.690;6.472;2023-06-22T14:33:47;22.90;99.90
15364;DHT22;7781;49.690;6.472;2023-06-22T14:36:17;23.00;99.90
15364;DHT22;7781;49.690;6.472;2023-06-22T14:38:46;23.30;99.90
15364;DHT22;7781;49.690;6.472;2023-06-22T14:41:15;23.50;99.90
15364;DHT22;7781;49.690;6.472;2023-06-22T14:43:46;23.80;99.90
15364;DHT22;7781;49.690;6.472;2023-06-22T14:46:15;24.00;99.90
15364;DHT22;7781;49.690;6.472;2023-06-22T14:48:44;24.40;99.90
15364;DHT22;7781;49.690;6.472;2023-06-22T14:51:13;24.70;99.90
15364;DHT22;7781;49.690;6.472;2023-06-22T14:53:45;24.90;99.90
15364;DHT22;7781;49.690;6.472;2023-06-22T14:56:14;24.80;99.90
15364;DHT22;7781;49.690;6.472;2023-06-22T14:58:43;24.60;99.90
15364;DHT22;7781;49.690;6.472;2023-06-22T15:01:16;24.60;99.90
15364;DHT22;7781;49.690;6.472;2023-06-22T15:03:45;24.50;99.90
15364;DHT22;7781;49.690;6.472;2023-06-22T15:06:14;24.70;99.90
15364;DHT22;7781;49.690;6.472;2023-06-22T15:08:45;25.10;99.90
15364;DHT22;7781;49.690;6.472;2023-06-22T15:11:13;25.40;99.90
15364;DHT22;7781;49.690;6.472;2023-06-22T15:13:41;25.70;99.90
15364;DHT22;7781;49.690;6.472;2023-06-22T15:16:10;25.80;99.90
15364;DHT22;7781;49.690;6.472;2023-06-22T15:18:39;26.00;99.90
15364;DHT22;7781;49.690;6.472;2023-06-22T15:21:08;26.00;99.90
15364;DHT22;7781;49.690;6.472;2023-06-22T15:23:37;25.90;99.90
15364;DHT22;7781;49.690;6.472;2023-06-22T15:26:07;25.70;99.90
15364;DHT22;7781;49.690;6.472;2023-06-22T15:28:35;25.50;99.90
15364;DHT22;7781;49.690;6.472;2023-06-22T15:31:06;25.40;99.90
15364;DHT22;7781;49.690;6.472;2023-06-22T15:33:34;25.80;99.90
15364;DHT22;7781;49.690;6.472;2023-06-22T15:36:04;26.00;99.90
15364;DHT22;7781;49.690;6.472;2023-06-22T15:38:34;26.30;99.90
15364;DHT22;7781;49.690;6.472;2023-06-22T15:41:02;26.30;99.90
15364;DHT22;7781;49.690;6.472;2023-06-22T15:43:33;26.10;99.90
15364;DHT22;7781;49.690;6.472;2023-06-22T15:46:02;26.30;99.90
15364;DHT22;7781;49.690;6.472;2023-06-22T15:48:30;26.50;99.90
15364;DHT22;7781;49.690;6.472;2023-06-22T15:50:59;26.60;99.90
15364;DHT22;7781;49.690;6.472;2023-06-22T15:53:29;26.50;99.90
15364;DHT22;7781;49.690;6.472;2023-06-22T15:55:57;26.30;99.90
15364;DHT22;7781;49.690;6.472;2023-06-22T15:58:26;26.00;99.90
15364;DHT22;7781;49.690;6.472;2023-06-22T16:00:57;25.90;99.90
15364;DHT22;7781;49.690;6.472;2023-06-22T16:03:25;25.90;99.90
15364;DHT22;7781;49.690;6.472;2023-06-22T16:06:00;25.90;99.90
15364;DHT22;7781;49.690;6.472;2023-06-22T16:08:29;25.90;99.90